Time;durP1;ratioP1;P1;durP2;ratioP2;P2;SDS_P1;SDS_P2;PMS_P1;PMS_P2;Temp;Humidity;BMP_temperature;BMP_pressure;BME280_temperature;BME280_humidity;BME280_pressure;Samples;Min_cycle;Max_cycle;Signal;HPM_P1;HPM_P2
2022/05/18 00:02:00;;;;;;;3.33;2.78;;;;;;;;;;4984711;28;20267;-63
2022/05/18 00:04:27;;;;;;;2.47;2.38;;;;;;;;;;5001523;28;20225;-64
2022/05/18 00:06:54;;;;;;;2.75;2.65;;;;;;;;;;4993586;28;20561;-64
2022/05/18 00:09:21;;;;;;;2.42;2.28;;;;;;;;;;5000453;28;20209;-63
2022/05/18 00:11:50;;;;;;;2.63;2.42;;;;;;;;;;4994347;28;20288;-63
2022/05/18 00:14:17;;;;;;;3.17;2.92;;;;;;;;;;4986003;28;20280;-64
2022/05/18 00:16:44;;;;;;;2.95;2.75;;;;;;;;;;4985520;28;20252;-64
2022/05/18 00:19:11;;;;;;;2.30;2.30;;;;;;;;;;4998579;28;20209;-64
2022/05/18 00:21:38;;;;;;;2.53;2.42;;;;;;;;;;4995567;28;20206;-64
2022/05/18 00:24:06;;;;;;;2.70;2.55;;;;;;;;;;4986806;28;20307;-64
2022/05/18 00:26:33;;;;;;;2.53;2.38;;;;;;;;;;4985150;28;20793;-63
2022/05/18 00:29:01;;;;;;;2.60;2.50;;;;;;;;;;4995688;28;20209;-64
2022/05/18 00:31:28;;;;;;;2.60;2.50;;;;;;;;;;4991627;28;20209;-63
2022/05/18 00:33:55;;;;;;;2.13;2.03;;;;;;;;;;4998890;28;20743;-64
2022/05/18 00:36:22;;;;;;;3.05;2.85;;;;;;;;;;4992440;28;20201;-63
2022/05/18 00:38:49;;;;;;;2.83;2.35;;;;;;;;;;4985318;28;20213;-63
2022/05/18 00:41:19;;;;;;;2.60;2.42;;;;;;;;;;4994968;28;20298;-63
2022/05/18 00:43:46;;;;;;;2.65;2.47;;;;;;;;;;5004183;28;20208;-63
2022/05/18 00:46:16;;;;;;;2.90;2.70;;;;;;;;;;5008792;28;20237;-63
2022/05/18 00:48:43;;;;;;;2.88;2.55;;;;;;;;;;5007372;28;20302;-64
2022/05/18 00:51:13;;;;;;;4.28;2.45;;;;;;;;;;4997633;28;20213;-64
2022/05/18 00:53:42;;;;;;;2.97;2.78;;;;;;;;;;4994918;28;20244;-63
2022/05/18 00:56:11;;;;;;;3.17;2.95;;;;;;;;;;4989058;28;20202;-63
2022/05/18 00:58:41;;;;;;;2.67;2.58;;;;;;;;;;4997930;28;21372;-63
2022/05/18 01:01:09;;;;;;;3.03;2.83;;;;;;;;;;4997682;28;20220;-63
2022/05/18 01:03:38;;;;;;;3.10;2.72;;;;;;;;;;4995264;28;20258;-63
2022/05/18 01:06:08;;;;;;;3.08;2.90;;;;;;;;;;4996771;28;20230;-64
2022/05/18 01:08:38;;;;;;;3.20;2.90;;;;;;;;;;4997661;28;20660;-64
2022/05/18 01:11:05;;;;;;;3.53;3.20;;;;;;;;;;4991030;28;20256;-64
2022/05/18 01:13:32;;;;;;;3.10;3.00;;;;;;;;;;4999694;28;20204;-63
2022/05/18 01:16:00;;;;;;;4.88;3.15;;;;;;;;;;4999843;28;20198;-63
2022/05/18 01:18:27;;;;;;;3.15;2.95;;;;;;;;;;5000895;28;20216;-63
2022/05/18 01:20:55;;;;;;;3.08;2.67;;;;;;;;;;4999904;28;20264;-63
2022/05/18 01:23:28;;;;;;;3.58;3.40;;;;;;;;;;4993150;28;20209;-64
2022/05/18 01:26:00;;;;;;;3.85;2.58;;;;;;;;;;5000314;28;20221;-63
2022/05/18 01:28:31;;;;;;;2.85;2.70;;;;;;;;;;5002658;28;20311;-63
2022/05/18 01:30:58;;;;;;;2.85;2.65;;;;;;;;;;4992522;28;20221;-64
2022/05/18 01:33:26;;;;;;;2.40;2.30;;;;;;;;;;4995368;28;20205;-64
2022/05/18 01:35:53;;;;;;;3.10;2.90;;;;;;;;;;4997841;28;20623;-63
2022/05/18 01:38:20;;;;;;;3.08;2.83;;;;;;;;;;5004279;28;20630;-62
2022/05/18 01:40:52;;;;;;;2.45;2.30;;;;;;;;;;5002343;28;20232;-61
2022/05/18 01:43:21;;;;;;;4.13;3.03;;;;;;;;;;5000177;28;20585;-63
2022/05/18 01:45:51;;;;;;;2.63;2.53;;;;;;;;;;5002782;28;20229;-63
2022/05/18 01:48:20;;;;;;;3.05;2.75;;;;;;;;;;4998101;28;20604;-63
2022/05/18 01:50:47;;;;;;;3.00;2.80;;;;;;;;;;5011324;28;20248;-63
2022/05/18 01:53:14;;;;;;;3.30;2.63;;;;;;;;;;5008787;28;20283;-63
2022/05/18 01:55:41;;;;;;;4.20;2.97;;;;;;;;;;4999456;28;20201;-63
2022/05/18 01:58:10;;;;;;;2.55;2.45;;;;;;;;;;5004318;28;20668;-63
2022/05/18 02:00:37;;;;;;;2.70;2.60;;;;;;;;;;4991916;28;20221;-63
2022/05/18 02:03:05;;;;;;;3.17;2.95;;;;;;;;;;4991763;28;20205;-63
2022/05/18 02:05:32;;;;;;;2.70;2.60;;;;;;;;;;4995148;28;20275;-63
2022/05/18 02:07:59;;;;;;;4.78;2.83;;;;;;;;;;4997954;28;20225;-63
2022/05/18 02:10:27;;;;;;;4.68;2.75;;;;;;;;;;5002562;28;20209;-63
2022/05/18 02:12:54;;;;;;;3.03;2.70;;;;;;;;;;4992476;28;20208;-63
2022/05/18 02:15:22;;;;;;;2.90;2.70;;;;;;;;;;4991686;28;20256;-63
2022/05/18 02:17:50;;;;;;;3.05;2.85;;;;;;;;;;4999609;28;20206;-63
2022/05/18 02:20:18;;;;;;;2.75;2.60;;;;;;;;;;5011381;28;20204;-62
2022/05/18 02:22:45;;;;;;;3.08;2.97;;;;;;;;;;4998937;28;20209;-62
2022/05/18 02:25:12;;;;;;;3.13;2.88;;;;;;;;;;4994706;28;20640;-62
2022/05/18 02:27:40;;;;;;;3.15;2.95;;;;;;;;;;5002451;28;20244;-63
2022/05/18 02:30:08;;;;;;;2.92;2.83;;;;;;;;;;5007849;28;20905;-62
2022/05/18 02:32:35;;;;;;;3.00;2.65;;;;;;;;;;5004956;28;20652;-63
2022/05/18 02:35:04;;;;;;;2.85;2.70;;;;;;;;;;5010656;28;20263;-63
2022/05/18 02:37:32;;;;;;;3.15;2.95;;;;;;;;;;4993493;28;20201;-62
2022/05/18 02:39:59;;;;;;;2.85;2.65;;;;;;;;;;4990344;28;20325;-62
2022/05/18 02:42:27;;;;;;;3.00;2.80;;;;;;;;;;5001524;28;20245;-63
2022/05/18 02:44:54;;;;;;;2.55;2.45;;;;;;;;;;4993809;28;20214;-63
2022/05/18 02:47:21;;;;;;;2.75;2.55;;;;;;;;;;4993906;28;20238;-62
2022/05/18 02:49:48;;;;;;;2.92;2.72;;;;;;;;;;5001572;28;20205;-63
2022/05/18 02:52:15;;;;;;;2.70;2.60;;;;;;;;;;5001671;28;20201;-63
2022/05/18 02:57:28;;;;;;;2.60;2.50;;;;;;;;;;4996938;28;20635;-63
2022/05/18 02:59:55;;;;;;;2.40;2.20;;;;;;;;;;4991221;28;20225;-63
2022/05/18 03:02:22;;;;;;;3.08;2.90;;;;;;;;;;4997629;28;20244;-63
2022/05/18 03:04:49;;;;;;;2.90;2.70;;;;;;;;;;4990860;28;20735;-62
2022/05/18 03:07:17;;;;;;;3.13;2.92;;;;;;;;;;4996126;28;20348;-63
2022/05/18 03:09:45;;;;;;;2.75;2.55;;;;;;;;;;4993617;28;20231;-63
2022/05/18 03:12:13;;;;;;;2.88;2.67;;;;;;;;;;4990251;28;20217;-65
2022/05/18 03:14:40;;;;;;;2.92;2.80;;;;;;;;;;4991985;28;20672;-64
2022/05/18 03:17:07;;;;;;;2.88;2.70;;;;;;;;;;4990700;28;20209;-63
2022/05/18 03:19:34;;;;;;;2.78;2.67;;;;;;;;;;4999071;28;20206;-63
2022/05/18 03:24:47;;;;;;;2.70;2.50;;;;;;;;;;4997186;28;20219;-64
2022/05/18 03:27:14;;;;;;;2.80;2.70;;;;;;;;;;4994179;28;20761;-63
2022/05/18 03:29:41;;;;;;;2.55;2.45;;;;;;;;;;5001914;28;20275;-63
2022/05/18 03:32:09;;;;;;;2.80;2.60;;;;;;;;;;5003161;28;20213;-63
2022/05/18 03:34:36;;;;;;;3.00;2.80;;;;;;;;;;4990088;28;20217;-64
2022/05/18 03:37:03;;;;;;;2.80;2.70;;;;;;;;;;4989387;28;20209;-63
2022/05/18 03:39:31;;;;;;;2.95;2.85;;;;;;;;;;4990422;28;20217;-63
2022/05/18 03:41:59;;;;;;;2.70;2.60;;;;;;;;;;4990697;28;20217;-63
2022/05/18 03:44:27;;;;;;;3.30;3.10;;;;;;;;;;4993188;28;20232;-63
2022/05/18 03:46:54;;;;;;;2.92;2.70;;;;;;;;;;4989753;28;20236;-63
2022/05/18 03:49:21;;;;;;;3.22;2.60;;;;;;;;;;4989403;28;20699;-63
2022/05/18 03:51:49;;;;;;;2.80;2.63;;;;;;;;;;4992959;28;20698;-63
2022/05/18 03:54:16;;;;;;;4.18;2.85;;;;;;;;;;5000663;28;20228;-63
2022/05/18 03:56:43;;;;;;;2.25;2.20;;;;;;;;;;5001802;28;20204;-63
2022/05/18 03:59:11;;;;;;;2.67;2.58;;;;;;;;;;5005854;28;20231;-64
2022/05/18 04:01:41;;;;;;;3.13;2.92;;;;;;;;;;4994546;28;20206;-63
2022/05/18 04:04:08;;;;;;;2.58;2.47;;;;;;;;;;4989548;28;20215;-64
2022/05/18 04:06:35;;;;;;;2.80;2.70;;;;;;;;;;4995883;28;20960;-63
2022/05/18 04:09:02;;;;;;;3.50;2.78;;;;;;;;;;4997885;28;20220;-63
2022/05/18 04:11:29;;;;;;;2.80;2.60;;;;;;;;;;4993422;28;20197;-64
2022/05/18 04:13:56;;;;;;;2.50;2.40;;;;;;;;;;4989321;28;20628;-63
2022/05/18 04:16:25;;;;;;;3.85;3.30;;;;;;;;;;4993617;28;20699;-63
2022/05/18 04:18:52;;;;;;;2.70;2.63;;;;;;;;;;4994389;28;20212;-64
2022/05/18 04:21:19;;;;;;;3.15;2.95;;;;;;;;;;4991058;28;20209;-64
2022/05/18 04:23:46;;;;;;;4.72;3.38;;;;;;;;;;4991871;28;20226;-61
2022/05/18 04:26:13;;;;;;;3.63;3.38;;;;;;;;;;4993331;28;20224;-61
2022/05/18 04:28:40;;;;;;;3.17;3.08;;;;;;;;;;4991414;28;20197;-61
2022/05/18 04:31:07;;;;;;;3.33;3.13;;;;;;;;;;4990958;28;20208;-61
2022/05/18 04:33:35;;;;;;;3.13;2.92;;;;;;;;;;5001206;28;20209;-61
2022/05/18 04:36:03;;;;;;;3.13;2.83;;;;;;;;;;5009222;28;20208;-61
2022/05/18 04:38:32;;;;;;;3.78;2.97;;;;;;;;;;4994470;28;20205;-61
2022/05/18 04:40:59;;;;;;;3.97;3.67;;;;;;;;;;4989596;28;20692;-61
2022/05/18 04:43:27;;;;;;;4.07;3.42;;;;;;;;;;4998112;28;20209;-61
2022/05/18 04:45:55;;;;;;;3.17;2.97;;;;;;;;;;4989415;28;20241;-62
2022/05/18 04:48:24;;;;;;;3.30;3.10;;;;;;;;;;4991478;28;20237;-61
2022/05/18 04:50:53;;;;;;;3.30;3.10;;;;;;;;;;4993067;28;20949;-61
2022/05/18 04:53:20;;;;;;;3.15;2.95;;;;;;;;;;4993293;28;20214;-60
2022/05/18 04:55:47;;;;;;;3.53;3.22;;;;;;;;;;5012399;28;20255;-60
2022/05/18 04:58:14;;;;;;;3.65;3.45;;;;;;;;;;5006898;28;20256;-61
2022/05/18 05:00:42;;;;;;;3.55;3.22;;;;;;;;;;4993390;28;20224;-60
2022/05/18 05:03:10;;;;;;;3.25;3.05;;;;;;;;;;4993728;28;20612;-60
2022/05/18 05:05:37;;;;;;;3.50;2.90;;;;;;;;;;4994240;28;20676;-60
2022/05/18 05:08:05;;;;;;;3.45;3.25;;;;;;;;;;4994654;28;20316;-60
2022/05/18 05:10:32;;;;;;;4.03;3.75;;;;;;;;;;4995117;28;20197;-59
2022/05/18 05:12:59;;;;;;;4.68;3.90;;;;;;;;;;5001502;28;20256;-60
2022/05/18 05:15:26;;;;;;;3.65;3.42;;;;;;;;;;5000105;28;20681;-60
2022/05/18 05:17:53;;;;;;;3.90;3.65;;;;;;;;;;4998244;28;20241;-60
2022/05/18 05:20:20;;;;;;;3.78;3.58;;;;;;;;;;4992919;28;20962;-60
2022/05/18 05:22:54;;;;;;;4.00;3.70;;;;;;;;;;4993576;28;20216;-60
2022/05/18 05:25:22;;;;;;;3.47;3.25;;;;;;;;;;4993979;28;20224;-60
2022/05/18 05:27:49;;;;;;;4.10;3.80;;;;;;;;;;4997276;28;20225;-61
2022/05/18 05:30:16;;;;;;;4.25;3.85;;;;;;;;;;4992302;28;20220;-59
2022/05/18 05:33:15;;;;;;;4.00;3.70;;;;;;;;;;5008255;28;20211;-60
2022/05/18 05:35:42;;;;;;;3.78;3.50;;;;;;;;;;4990443;28;20569;-59
2022/05/18 05:38:10;;;;;;;3.60;3.30;;;;;;;;;;4992351;28;20607;-59
2022/05/18 05:40:39;;;;;;;3.35;3.25;;;;;;;;;;5010497;28;20308;-59
2022/05/18 05:43:06;;;;;;;4.15;3.78;;;;;;;;;;5004797;28;20208;-60
2022/05/18 05:45:33;;;;;;;3.35;3.05;;;;;;;;;;5001874;28;20271;-59
2022/05/18 05:48:01;;;;;;;3.75;3.53;;;;;;;;;;4991930;28;20244;-60
2022/05/18 05:50:28;;;;;;;3.13;2.92;;;;;;;;;;4993535;28;20232;-59
2022/05/18 05:52:55;;;;;;;3.53;3.20;;;;;;;;;;5001747;28;20205;-59
2022/05/18 05:55:22;;;;;;;3.00;2.90;;;;;;;;;;4993131;28;20206;-59
2022/05/18 05:57:50;;;;;;;2.63;2.45;;;;;;;;;;5007643;28;20212;-60
2022/05/18 06:00:18;;;;;;;2.80;2.70;;;;;;;;;;4988153;28;20206;-60
2022/05/18 06:02:45;;;;;;;2.83;2.70;;;;;;;;;;4990057;28;20209;-60
2022/05/18 06:05:13;;;;;;;3.20;3.00;;;;;;;;;;5002567;28;20753;-61
2022/05/18 06:07:40;;;;;;;3.15;2.88;;;;;;;;;;5009229;28;20249;-60
2022/05/18 06:10:08;;;;;;;3.05;2.78;;;;;;;;;;4999438;28;20209;-60
2022/05/18 06:12:35;;;;;;;2.60;2.50;;;;;;;;;;5002741;28;20259;-60
2022/05/18 06:15:04;;;;;;;3.15;2.90;;;;;;;;;;5001200;28;20206;-59
2022/05/18 06:17:31;;;;;;;3.33;3.13;;;;;;;;;;5005576;28;20201;-61
2022/05/18 06:19:58;;;;;;;2.75;2.55;;;;;;;;;;5006190;28;20205;-59
2022/05/18 06:22:26;;;;;;;2.97;2.78;;;;;;;;;;5002043;28;20357;-60
2022/05/18 06:24:53;;;;;;;2.90;2.67;;;;;;;;;;4999484;28;20685;-60
2022/05/18 06:27:20;;;;;;;2.95;2.80;;;;;;;;;;4998568;28;20709;-60
2022/05/18 06:29:48;;;;;;;2.50;2.33;;;;;;;;;;4993401;28;20279;-60
2022/05/18 06:32:16;;;;;;;5.07;2.67;;;;;;;;;;4991137;28;20197;-61
2022/05/18 06:34:45;;;;;;;3.00;2.67;;;;;;;;;;4992377;28;20248;-60
2022/05/18 06:37:12;;;;;;;3.63;2.60;;;;;;;;;;4977477;28;20723;-60
2022/05/18 06:39:39;;;;;;;2.50;2.40;;;;;;;;;;5010504;28;20220;-60
2022/05/18 06:42:06;;;;;;;2.75;2.65;;;;;;;;;;5004638;28;20213;-61
2022/05/18 06:44:34;;;;;;;2.85;2.75;;;;;;;;;;5005028;28;20213;-61
2022/05/18 06:47:01;;;;;;;2.60;2.50;;;;;;;;;;4995933;28;20353;-62
2022/05/18 06:49:30;;;;;;;3.13;2.78;;;;;;;;;;5010377;28;20603;-62
2022/05/18 06:51:57;;;;;;;3.10;2.90;;;;;;;;;;5004176;28;20580;-60
2022/05/18 06:54:24;;;;;;;3.30;2.50;;;;;;;;;;5000134;28;20662;-62
2022/05/18 06:56:51;;;;;;;2.80;2.70;;;;;;;;;;4998651;28;20202;-60
2022/05/18 06:59:19;;;;;;;2.55;2.45;;;;;;;;;;5007331;28;20259;-60
2022/05/18 07:01:46;;;;;;;2.47;2.40;;;;;;;;;;4990297;28;20228;-61
2022/05/18 07:04:14;;;;;;;2.78;2.58;;;;;;;;;;4990582;28;20794;-60
2022/05/18 07:06:44;;;;;;;3.75;2.50;;;;;;;;;;4998403;28;20236;-61
2022/05/18 07:09:13;;;;;;;2.83;2.72;;;;;;;;;;4995488;28;20597;-61
2022/05/18 07:11:40;;;;;;;3.15;2.53;;;;;;;;;;4990566;28;20221;-60
2022/05/18 07:14:07;;;;;;;2.95;2.65;;;;;;;;;;5002373;28;20213;-61
2022/05/18 07:16:34;;;;;;;2.70;2.50;;;;;;;;;;5003576;28;20280;-61
2022/05/18 07:19:01;;;;;;;2.85;2.40;;;;;;;;;;4993565;28;20216;-61
2022/05/18 07:21:29;;;;;;;2.67;2.53;;;;;;;;;;5008329;28;20727;-60
2022/05/18 07:23:57;;;;;;;2.72;2.58;;;;;;;;;;4995814;28;20341;-61
2022/05/18 07:26:25;;;;;;;3.20;2.90;;;;;;;;;;4990393;28;20214;-61
2022/05/18 07:28:52;;;;;;;2.67;2.40;;;;;;;;;;5005225;28;20638;-61
2022/05/18 07:31:19;;;;;;;2.60;2.50;;;;;;;;;;4990687;28;20582;-61
2022/05/18 07:33:47;;;;;;;2.47;2.38;;;;;;;;;;5009356;28;20208;-61
2022/05/18 07:36:14;;;;;;;2.10;2.00;;;;;;;;;;5007660;28;20691;-61
2022/05/18 07:41:24;;;;;;;2.92;1.92;;;;;;;;;;4990765;28;20210;-63
2022/05/18 07:43:51;;;;;;;1.95;1.90;;;;;;;;;;4989929;28;20206;-61
2022/05/18 07:46:18;;;;;;;2.30;2.00;;;;;;;;;;4991815;28;20268;-61
2022/05/18 07:48:45;;;;;;;2.20;2.00;;;;;;;;;;4991784;28;20244;-63
2022/05/18 07:51:14;;;;;;;2.42;2.00;;;;;;;;;;5006690;28;20862;-64
2022/05/18 07:53:41;;;;;;;2.20;2.10;;;;;;;;;;4994498;28;20300;-63
2022/05/18 07:56:08;;;;;;;2.38;2.28;;;;;;;;;;4982631;28;20221;-63
2022/05/18 07:58:37;;;;;;;1.65;1.65;;;;;;;;;;4989519;28;20198;-64
2022/05/18 08:01:07;;;;;;;2.72;1.90;;;;;;;;;;4998406;28;20201;-61
2022/05/18 08:03:34;;;;;;;2.25;1.73;;;;;;;;;;4991980;28;20707;-61
2022/05/18 08:06:02;;;;;;;2.22;2.05;;;;;;;;;;4989747;28;20225;-61
2022/05/18 08:08:29;;;;;;;2.40;2.20;;;;;;;;;;4991489;28;20226;-62
2022/05/18 08:16:29;;;;;;;1.88;1.88;;;;;;;;;;4992989;28;20268;-61
2022/05/18 08:18:56;;;;;;;2.05;1.95;;;;;;;;;;4989393;28;20205;-61
2022/05/18 08:21:23;;;;;;;2.33;2.22;;;;;;;;;;4990087;28;20229;-61
2022/05/18 08:23:51;;;;;;;2.00;1.90;;;;;;;;;;4990015;28;20210;-61
2022/05/18 08:26:18;;;;;;;1.90;1.80;;;;;;;;;;4991799;28;20693;-61
2022/05/18 08:28:46;;;;;;;6.25;1.58;;;;;;;;;;4996637;28;20295;-61
2022/05/18 08:31:17;;;;;;;1.95;1.90;;;;;;;;;;4998320;28;20212;-62
2022/05/18 08:33:44;;;;;;;2.05;1.95;;;;;;;;;;4994169;28;20198;-61
2022/05/18 08:36:12;;;;;;;1.98;1.88;;;;;;;;;;4999082;28;20198;-61
2022/05/18 08:38:39;;;;;;;1.80;1.80;;;;;;;;;;5003455;28;20193;-62
2022/05/18 08:41:10;;;;;;;2.05;1.92;;;;;;;;;;4999248;28;20209;-61
2022/05/18 08:43:38;;;;;;;1.48;1.48;;;;;;;;;;4999261;28;20988;-62
2022/05/18 08:46:09;;;;;;;2.00;1.90;;;;;;;;;;4995994;28;20208;-61
2022/05/18 08:48:41;;;;;;;1.60;1.50;;;;;;;;;;5000226;28;20240;-61
2022/05/18 08:51:14;;;;;;;1.80;1.70;;;;;;;;;;4995644;28;20239;-62
2022/05/18 08:53:47;;;;;;;2.17;1.85;;;;;;;;;;4999434;28;20232;-61
2022/05/18 08:56:17;;;;;;;1.60;1.52;;;;;;;;;;4996114;28;20638;-62
2022/05/18 08:58:45;;;;;;;1.85;1.75;;;;;;;;;;4998689;28;20291;-61
2022/05/18 09:01:15;;;;;;;2.20;2.10;;;;;;;;;;4999724;28;20223;-61
2022/05/18 09:03:45;;;;;;;2.20;1.67;;;;;;;;;;4990801;28;20664;-61
2022/05/18 09:06:25;;;;;;;1.98;1.88;;;;;;;;;;4991581;28;20307;-60
2022/05/18 09:11:35;;;;;;;1.70;1.70;;;;;;;;;;4998767;28;20228;-61
2022/05/18 09:14:02;;;;;;;2.55;1.85;;;;;;;;;;4996178;28;20198;-61
2022/05/18 09:16:35;;;;;;;3.55;2.03;;;;;;;;;;4997817;28;20224;-61
2022/05/18 09:19:07;;;;;;;1.75;1.65;;;;;;;;;;4998403;28;20619;-61
2022/05/18 09:21:40;;;;;;;2.20;2.10;;;;;;;;;;4997257;28;20202;-61
2022/05/18 09:24:13;;;;;;;2.08;1.98;;;;;;;;;;4996896;28;20302;-62
2022/05/18 09:26:53;;;;;;;2.15;2.00;;;;;;;;;;4998085;28;20350;-62
2022/05/18 09:29:24;;;;;;;1.88;1.85;;;;;;;;;;4999784;28;20233;-62
2022/05/18 09:32:01;;;;;;;2.20;2.00;;;;;;;;;;4997308;28;20205;-62
2022/05/18 09:34:36;;;;;;;2.50;2.35;;;;;;;;;;4999863;28;20233;-62
2022/05/18 09:37:12;;;;;;;2.20;2.10;;;;;;;;;;4999734;28;20958;-63
2022/05/18 09:39:41;;;;;;;2.92;2.17;;;;;;;;;;5002710;28;20311;-60
2022/05/18 09:42:10;;;;;;;2.20;2.10;;;;;;;;;;4998082;28;20202;-63
2022/05/18 09:44:42;;;;;;;2.30;2.30;;;;;;;;;;5000308;28;20584;-62
2022/05/18 09:47:12;;;;;;;3.25;2.28;;;;;;;;;;4997823;28;20292;-61
2022/05/18 09:49:40;;;;;;;2.28;2.17;;;;;;;;;;5002169;28;20206;-61
2022/05/18 09:52:08;;;;;;;2.33;2.17;;;;;;;;;;4997045;28;20206;-60
2022/05/18 09:54:36;;;;;;;3.30;2.20;;;;;;;;;;5002610;28;20715;-60
2022/05/18 09:57:06;;;;;;;2.10;2.03;;;;;;;;;;5001306;28;20295;-60
2022/05/18 09:59:36;;;;;;;2.20;2.08;;;;;;;;;;5005022;28;20576;-66
2022/05/18 10:07:45;;;;;;;1.80;1.70;;;;;;;;;;4971511;28;20249;-60
2022/05/18 10:10:13;;;;;;;1.80;1.80;;;;;;;;;;4978617;28;20301;-62
2022/05/18 10:12:42;;;;;;;1.80;1.80;;;;;;;;;;5004039;28;20602;-63
2022/05/18 10:15:20;;;;;;;2.08;1.98;;;;;;;;;;4990994;28;20218;-61
2022/05/18 10:17:48;;;;;;;1.98;1.80;;;;;;;;;;4990896;28;20295;-61
2022/05/18 10:20:23;;;;;;;2.20;2.00;;;;;;;;;;4990856;28;20230;-61
2022/05/18 10:22:51;;;;;;;2.08;1.92;;;;;;;;;;4990883;28;20232;-63
2022/05/18 10:25:24;;;;;;;2.28;1.98;;;;;;;;;;4991000;28;20206;-62
2022/05/18 10:27:51;;;;;;;1.83;1.75;;;;;;;;;;4999128;28;21840;-63
2022/05/18 10:30:19;;;;;;;2.00;1.92;;;;;;;;;;5002564;28;20213;-63
2022/05/18 10:32:54;;;;;;;1.92;1.83;;;;;;;;;;5002222;28;20832;-62
2022/05/18 10:35:38;;;;;;;1.92;1.92;;;;;;;;;;4999368;28;20302;-62
2022/05/18 10:38:17;;;;;;;3.80;2.40;;;;;;;;;;5010761;28;20205;-62
2022/05/18 10:40:44;;;;;;;2.47;2.38;;;;;;;;;;5001232;28;20264;-62
2022/05/18 10:43:24;;;;;;;1.73;1.73;;;;;;;;;;5010567;28;20217;-62
2022/05/18 10:45:55;;;;;;;3.38;2.20;;;;;;;;;;4999824;28;20209;-62
2022/05/18 10:48:23;;;;;;;2.10;2.00;;;;;;;;;;4991725;28;20230;-62
2022/05/18 10:50:59;;;;;;;2.15;2.08;;;;;;;;;;4992957;28;20217;-61
2022/05/18 10:53:30;;;;;;;2.33;2.20;;;;;;;;;;4993279;28;20209;-61
2022/05/18 10:56:03;;;;;;;2.67;2.05;;;;;;;;;;4995682;28;20845;-61
2022/05/18 10:58:31;;;;;;;1.98;1.88;;;;;;;;;;5002885;28;20216;-60
2022/05/18 11:01:00;;;;;;;2.75;2.30;;;;;;;;;;4995005;28;20208;-61
2022/05/18 11:03:30;;;;;;;4.53;2.00;;;;;;;;;;5010307;28;20303;-61
2022/05/18 11:06:03;;;;;;;2.10;2.00;;;;;;;;;;5003857;28;20307;-63
2022/05/18 11:08:31;;;;;;;2.38;2.17;;;;;;;;;;4991407;28;20241;-60
2022/05/18 11:11:02;;;;;;;1.95;1.95;;;;;;;;;;5001251;28;20210;-63
2022/05/18 11:13:34;;;;;;;2.45;1.90;;;;;;;;;;4990435;28;20224;-63
2022/05/18 11:16:05;;;;;;;2.55;2.05;;;;;;;;;;5006189;28;20209;-63
2022/05/18 11:18:36;;;;;;;2.13;2.03;;;;;;;;;;4991816;28;20205;-62
2022/05/18 11:21:07;;;;;;;2.20;2.00;;;;;;;;;;4989925;28;20209;-63
2022/05/18 11:23:38;;;;;;;1.67;1.67;;;;;;;;;;5007924;28;20672;-61
2022/05/18 11:26:12;;;;;;;2.72;1.95;;;;;;;;;;4993920;28;20205;-61
2022/05/18 11:28:46;;;;;;;2.17;2.08;;;;;;;;;;4971093;28;20232;-66
2022/05/18 11:31:22;;;;;;;2.15;2.10;;;;;;;;;;4979292;28;20654;-61
2022/05/18 11:33:55;;;;;;;2.13;2.00;;;;;;;;;;4988779;28;20294;-61
2022/05/18 11:36:27;;;;;;;1.83;1.75;;;;;;;;;;5003426;28;20832;-60
2022/05/18 11:39:03;;;;;;;1.95;1.83;;;;;;;;;;5002372;28;20907;-61
2022/05/18 11:41:34;;;;;;;1.75;1.52;;;;;;;;;;4986539;28;20212;-60
2022/05/18 11:44:04;;;;;;;2.05;1.95;;;;;;;;;;4985042;28;20260;-61
2022/05/18 11:46:39;;;;;;;1.75;1.60;;;;;;;;;;5000527;28;20334;-61
2022/05/18 11:49:11;;;;;;;1.20;1.20;;;;;;;;;;4985530;28;20335;-61
2022/05/18 11:51:44;;;;;;;1.40;1.40;;;;;;;;;;4989230;28;20301;-62
2022/05/18 11:54:16;;;;;;;1.30;1.30;;;;;;;;;;4985610;28;20213;-61
2022/05/18 11:56:47;;;;;;;1.30;1.30;;;;;;;;;;5000067;28;20205;-62
2022/05/18 11:59:29;;;;;;;1.48;1.48;;;;;;;;;;4986524;28;20205;-62
2022/05/18 12:02:01;;;;;;;1.38;1.38;;;;;;;;;;4985180;28;20217;-62
2022/05/18 12:04:47;;;;;;;1.42;1.40;;;;;;;;;;4995112;28;20211;-62
2022/05/18 12:07:34;;;;;;;1.17;1.17;;;;;;;;;;4982495;28;20320;-62
2022/05/18 12:10:21;;;;;;;1.10;1.10;;;;;;;;;;4986640;28;20233;-62
2022/05/18 12:12:53;;;;;;;1.98;1.20;;;;;;;;;;4987780;28;20212;-62
2022/05/18 12:15:24;;;;;;;1.15;1.15;;;;;;;;;;4986565;28;20291;-61
2022/05/18 12:17:56;;;;;;;3.53;1.30;;;;;;;;;;4984518;28;20205;-62
2022/05/18 12:20:27;;;;;;;1.30;1.30;;;;;;;;;;4984601;28;20220;-62
2022/05/18 12:22:58;;;;;;;1.58;1.45;;;;;;;;;;5002389;28;20208;-62
2022/05/18 12:25:26;;;;;;;2.55;1.20;;;;;;;;;;4988169;28;20237;-63
2022/05/18 12:27:55;;;;;;;1.40;1.35;;;;;;;;;;5004765;28;20208;-63
2022/05/18 12:30:23;;;;;;;1.30;1.30;;;;;;;;;;4987484;28;20237;-63
2022/05/18 12:32:51;;;;;;;1.40;1.20;;;;;;;;;;4985266;28;20221;-62
2022/05/18 12:35:20;;;;;;;1.10;1.10;;;;;;;;;;4986466;28;20213;-62
2022/05/18 12:37:52;;;;;;;1.20;1.10;;;;;;;;;;4985464;28;20213;-62
2022/05/18 12:40:31;;;;;;;1.40;1.35;;;;;;;;;;4994331;28;20235;-63
2022/05/18 12:43:00;;;;;;;2.38;1.25;;;;;;;;;;4992841;28;20237;-63
2022/05/18 12:45:33;;;;;;;1.67;1.40;;;;;;;;;;4989483;28;20220;-62
2022/05/18 12:48:08;;;;;;;1.30;1.30;;;;;;;;;;4985813;28;20241;-61
2022/05/18 12:50:37;;;;;;;1.40;1.40;;;;;;;;;;5004810;28;20254;-61
2022/05/18 12:53:05;;;;;;;1.05;1.05;;;;;;;;;;4995127;28;20216;-63
2022/05/18 12:55:39;;;;;;;3.38;1.05;;;;;;;;;;4986467;28;20268;-62
2022/05/18 12:58:12;;;;;;;1.40;1.40;;;;;;;;;;4988512;28;20221;-61
2022/05/18 13:00:43;;;;;;;1.10;1.10;;;;;;;;;;4985307;28;20216;-60
2022/05/18 13:03:37;;;;;;;1.10;1.10;;;;;;;;;;4984808;28;20210;-60
2022/05/18 13:06:11;;;;;;;1.10;1.10;;;;;;;;;;4931090;28;20206;-63
2022/05/18 13:09:08;;;;;;;1.20;1.20;;;;;;;;;;4993636;28;20228;-62
2022/05/18 13:11:41;;;;;;;0.90;0.90;;;;;;;;;;4999623;28;20209;-63
2022/05/18 13:14:21;;;;;;;1.20;1.20;;;;;;;;;;4986674;28;20218;-63
2022/05/18 13:16:59;;;;;;;1.00;1.00;;;;;;;;;;4988872;28;20214;-63
2022/05/18 13:19:27;;;;;;;1.25;1.25;;;;;;;;;;4999323;28;20213;-62
2022/05/18 13:22:00;;;;;;;0.85;0.85;;;;;;;;;;4988176;28;20294;-61
2022/05/18 13:24:30;;;;;;;1.30;1.20;;;;;;;;;;4987980;28;20676;-64
2022/05/18 13:27:03;;;;;;;1.50;1.27;;;;;;;;;;4985638;28;20213;-62
2022/05/18 13:29:31;;;;;;;1.00;1.00;;;;;;;;;;4987569;28;20562;-63
2022/05/18 13:32:05;;;;;;;1.33;1.23;;;;;;;;;;4988385;28;20217;-63
2022/05/18 13:34:48;;;;;;;1.25;1.20;;;;;;;;;;4987983;28;20218;-63
2022/05/18 13:37:15;;;;;;;1.30;1.27;;;;;;;;;;4984271;28;20684;-63
2022/05/18 13:39:45;;;;;;;0.95;0.95;;;;;;;;;;4990995;28;20719;-63
2022/05/18 13:42:14;;;;;;;1.10;1.10;;;;;;;;;;4988119;28;20283;-63
2022/05/18 13:44:42;;;;;;;0.93;0.93;;;;;;;;;;4996524;28;20303;-63
2022/05/18 13:47:11;;;;;;;1.20;1.02;;;;;;;;;;5007306;28;20216;-62
2022/05/18 13:49:41;;;;;;;0.93;0.93;;;;;;;;;;5007731;28;20240;-63
2022/05/18 13:52:09;;;;;;;1.20;1.10;;;;;;;;;;5007579;28;20219;-63
2022/05/18 13:54:39;;;;;;;0.90;0.90;;;;;;;;;;4996411;28;20303;-65
2022/05/18 13:57:07;;;;;;;0.80;0.80;;;;;;;;;;4998130;28;20298;-63
2022/05/18 13:59:37;;;;;;;0.90;0.90;;;;;;;;;;5006861;28;20272;-63
2022/05/18 14:02:05;;;;;;;0.82;0.82;;;;;;;;;;5007391;28;20336;-63
2022/05/18 14:04:34;;;;;;;1.33;1.10;;;;;;;;;;5006950;28;20274;-63
2022/05/18 14:07:02;;;;;;;1.55;1.10;;;;;;;;;;5007054;28;20217;-63
2022/05/18 14:09:29;;;;;;;1.98;1.58;;;;;;;;;;5006997;28;20295;-64
2022/05/18 14:11:57;;;;;;;1.00;1.00;;;;;;;;;;5006998;28;20611;-64
2022/05/18 14:14:24;;;;;;;1.13;1.05;;;;;;;;;;5006999;28;20248;-64
2022/05/18 14:16:56;;;;;;;0.82;0.82;;;;;;;;;;5005945;28;20267;-64
2022/05/18 14:19:37;;;;;;;1.00;1.00;;;;;;;;;;5006813;28;20236;-61
2022/05/18 14:22:05;;;;;;;1.10;1.10;;;;;;;;;;5000786;28;20228;-62
2022/05/18 14:24:36;;;;;;;1.10;0.90;;;;;;;;;;4986810;28;20593;-64
2022/05/18 14:27:05;;;;;;;1.10;1.10;;;;;;;;;;4986780;28;20252;-64
2022/05/18 14:29:34;;;;;;;0.77;0.77;;;;;;;;;;4986715;28;20778;-64
2022/05/18 14:32:05;;;;;;;1.00;1.00;;;;;;;;;;4986895;28;20228;-63
2022/05/18 14:34:42;;;;;;;1.73;1.00;;;;;;;;;;5004795;28;20468;-63
2022/05/18 14:37:11;;;;;;;0.90;0.90;;;;;;;;;;4996101;28;20260;-64
2022/05/18 14:39:39;;;;;;;1.13;1.13;;;;;;;;;;4987095;28;20221;-63
2022/05/18 14:42:07;;;;;;;2.72;1.38;;;;;;;;;;4986721;28;20217;-62
2022/05/18 14:44:50;;;;;;;0.95;0.95;;;;;;;;;;4986097;28;20588;-62
2022/05/18 14:47:19;;;;;;;0.90;0.90;;;;;;;;;;4986735;28;20662;-61
2022/05/18 14:49:46;;;;;;;0.93;0.93;;;;;;;;;;4986590;28;20245;-62
2022/05/18 14:52:26;;;;;;;0.80;0.80;;;;;;;;;;4986372;28;20284;-61
2022/05/18 14:54:53;;;;;;;1.95;1.10;;;;;;;;;;4986503;28;20225;-61
2022/05/18 14:57:27;;;;;;;2.70;1.00;;;;;;;;;;4986274;28;20694;-61
2022/05/18 14:59:57;;;;;;;0.82;0.82;;;;;;;;;;4986254;28;20218;-61
2022/05/18 15:02:25;;;;;;;1.08;1.02;;;;;;;;;;4984541;28;20845;-61
2022/05/18 15:04:58;;;;;;;1.15;1.00;;;;;;;;;;4986125;28;20213;-61
2022/05/18 15:07:28;;;;;;;2.10;0.90;;;;;;;;;;4986256;28;20292;-61
2022/05/18 15:09:56;;;;;;;1.20;1.20;;;;;;;;;;4986265;28;20845;-61
2022/05/18 15:12:27;;;;;;;1.00;1.00;;;;;;;;;;4986308;28;20213;-61
2022/05/18 15:14:57;;;;;;;1.08;1.08;;;;;;;;;;4985906;28;20210;-61
2022/05/18 15:17:42;;;;;;;1.45;0.70;;;;;;;;;;4986126;28;20721;-61
2022/05/18 15:20:13;;;;;;;1.02;1.02;;;;;;;;;;4986383;28;20301;-61